Time;durP1;ratioP1;P1;durP2;ratioP2;P2;SDS_P1;SDS_P2;PMS_P1;PMS_P2;Temp;Humidity;BMP_temperature;BMP_pressure;BME280_temperature;BME280_humidity;BME280_pressure;Samples;Min_cycle;Max_cycle;Signal;HPM_P1;HPM_P2
2022/03/23 00:01:34;;;;;;;18.53;11.90;;;3.60;99.90;;;;;;4994543;28;20168;-83
2022/03/23 00:04:01;;;;;;;17.57;11.90;;;3.70;99.90;;;;;;4994502;28;20264;-83
2022/03/23 00:06:27;;;;;;;22.17;12.57;;;3.80;99.90;;;;;;4994579;28;20266;-83
2022/03/23 00:08:53;;;;;;;16.77;12.17;;;3.90;99.90;;;;;;4994701;28;20211;-83
2022/03/23 00:11:19;;;;;;;19.00;12.10;;;4.00;99.90;;;;;;4994856;28;20169;-83
2022/03/23 00:13:45;;;;;;;17.40;11.20;;;3.90;99.90;;;;;;4997605;28;20175;-83
2022/03/23 00:16:11;;;;;;;19.80;12.43;;;3.80;99.90;;;;;;4998572;28;20279;-85
2022/03/23 00:18:36;;;;;;;19.63;13.13;;;3.80;99.90;;;;;;4998474;28;20214;-83
2022/03/23 00:21:02;;;;;;;18.27;11.67;;;3.90;99.90;;;;;;4998683;28;20603;-83
2022/03/23 00:23:28;;;;;;;17.60;12.00;;;3.90;99.90;;;;;;4998200;28;20528;-83
2022/03/23 00:25:54;;;;;;;18.07;12.13;;;3.90;99.90;;;;;;4998506;28;20559;-83
2022/03/23 00:28:19;;;;;;;16.07;11.27;;;3.90;99.90;;;;;;4998574;28;20180;-83
2022/03/23 00:30:48;;;;;;;14.50;10.50;;;3.90;99.90;;;;;;4996981;28;20179;-84
2022/03/23 00:33:15;;;;;;;17.80;11.03;;;3.90;99.90;;;;;;4996761;28;20214;-84
2022/03/23 00:35:41;;;;;;;17.27;11.43;;;3.70;99.90;;;;;;4998298;28;20211;-83
2022/03/23 00:38:07;;;;;;;17.80;11.83;;;3.60;99.90;;;;;;4996858;28;20179;-83
2022/03/23 00:40:33;;;;;;;19.57;12.47;;;3.70;99.90;;;;;;4998253;28;20184;-84
2022/03/23 00:43:01;;;;;;;25.33;12.17;;;3.70;99.90;;;;;;4998152;28;20200;-83
2022/03/23 00:45:27;;;;;;;21.73;11.33;;;3.70;99.90;;;;;;4998028;28;20254;-83
2022/03/23 00:47:53;;;;;;;20.80;12.33;;;3.70;99.90;;;;;;4997826;28;20183;-83
2022/03/23 00:52:54;;;;;;;20.30;12.13;;;3.70;99.90;;;;;;5045736;23;20236;-83
2022/03/23 00:55:20;;;;;;;17.43;11.70;;;3.80;99.90;;;;;;4978440;28;20172;-83
2022/03/23 00:57:45;;;;;;;17.30;12.67;;;3.80;99.90;;;;;;4978518;28;20184;-82
2022/03/23 01:00:17;;;;;;;19.77;13.03;;;3.70;99.90;;;;;;4978306;28;20218;-84
2022/03/23 01:02:44;;;;;;;19.77;12.93;;;3.60;99.90;;;;;;4977870;28;20157;-83
2022/03/23 01:05:12;;;;;;;16.70;12.77;;;3.40;99.90;;;;;;4978318;28;20187;-83
2022/03/23 01:07:38;;;;;;;19.10;12.80;;;3.30;99.90;;;;;;4978169;28;20630;-82
2022/03/23 01:10:06;;;;;;;20.93;12.87;;;3.30;99.90;;;;;;4993090;28;20184;-83
2022/03/23 01:12:32;;;;;;;18.07;13.10;;;3.30;99.90;;;;;;4977938;28;20177;-83
2022/03/23 01:14:58;;;;;;;15.87;12.07;;;3.30;99.90;;;;;;4978435;28;20199;-82
2022/03/23 01:17:24;;;;;;;15.53;11.63;;;3.40;99.90;;;;;;4977787;28;20192;-83
2022/03/23 01:19:50;;;;;;;17.00;11.83;;;3.50;99.90;;;;;;4978041;28;20595;-83
2022/03/23 01:22:16;;;;;;;17.40;12.43;;;3.40;99.90;;;;;;4977801;28;20171;-83
2022/03/23 01:24:43;;;;;;;18.43;12.07;;;3.30;99.90;;;;;;4977261;28;20298;-84
2022/03/23 01:27:08;;;;;;;18.13;12.53;;;3.20;99.90;;;;;;4976350;28;20181;-83
2022/03/23 01:29:35;;;;;;;18.00;11.70;;;3.10;99.90;;;;;;4977749;28;20183;-83
2022/03/23 01:32:00;;;;;;;20.17;12.73;;;3.10;99.90;;;;;;4977675;28;20521;-83
2022/03/23 01:34:26;;;;;;;17.67;13.20;;;3.00;99.90;;;;;;4977791;28;20182;-84
2022/03/23 01:36:52;;;;;;;19.13;13.13;;;2.90;99.90;;;;;;4977772;28;20199;-83
2022/03/23 01:39:17;;;;;;;18.67;12.97;;;2.80;99.90;;;;;;4977520;28;20521;-83
2022/03/23 01:41:43;;;;;;;17.23;12.70;;;2.80;99.90;;;;;;4977178;28;20179;-84
2022/03/23 01:44:17;;;;;;;20.83;13.00;;;2.90;99.90;;;;;;4977612;28;20215;-83
2022/03/23 01:47:06;;;;;;;24.53;13.17;;;2.90;99.90;;;;;;4977523;28;20158;-84
2022/03/23 01:49:33;;;;;;;23.73;11.73;;;2.80;99.90;;;;;;4977618;28;20614;-83
2022/03/23 01:51:59;;;;;;;18.67;13.40;;;2.80;99.90;;;;;;4976627;28;20232;-83
2022/03/23 01:54:25;;;;;;;16.47;12.30;;;2.70;99.90;;;;;;4977411;28;20314;-83
2022/03/23 01:56:51;;;;;;;20.13;13.53;;;2.70;99.90;;;;;;4977159;28;20234;-83
2022/03/23 01:59:18;;;;;;;17.37;12.20;;;2.70;99.90;;;;;;4977148;28;20171;-84
2022/03/23 02:01:44;;;;;;;16.30;12.63;;;2.70;99.90;;;;;;4975894;28;20203;-83
2022/03/23 02:04:09;;;;;;;18.13;12.33;;;2.70;99.90;;;;;;4977216;28;20665;-83
2022/03/23 02:06:36;;;;;;;20.57;12.43;;;2.60;99.90;;;;;;4977163;28;20216;-83
2022/03/23 02:09:02;;;;;;;17.27;12.73;;;2.60;99.90;;;;;;4976961;28;20191;-84
2022/03/23 02:11:29;;;;;;;17.43;11.60;;;2.50;99.90;;;;;;4976699;28;20256;-84
2022/03/23 02:13:55;;;;;;;18.23;12.43;;;2.50;99.90;;;;;;4975978;28;20236;-83
2022/03/23 02:16:20;;;;;;;16.20;12.27;;;2.50;99.90;;;;;;4991933;28;20182;-83
2022/03/23 02:18:46;;;;;;;14.93;11.20;;;2.50;99.90;;;;;;4976892;28;20186;-84
2022/03/23 02:21:15;;;;;;;19.17;11.70;;;2.50;99.90;;;;;;4976862;28;20174;-83
2022/03/23 02:23:41;;;;;;;19.23;12.00;;;2.40;99.90;;;;;;4976519;28;20581;-84
2022/03/23 02:26:08;;;;;;;18.10;12.30;;;2.40;99.90;;;;;;4976907;28;20172;-83
2022/03/23 02:28:35;;;;;;;16.53;11.37;;;2.40;99.90;;;;;;4976681;28;20518;-84
2022/03/23 02:31:01;;;;;;;19.37;12.53;;;2.30;99.90;;;;;;4976608;28;20168;-84
2022/03/23 02:33:27;;;;;;;19.77;11.97;;;2.10;99.90;;;;;;4976589;28;20172;-83
2022/03/23 02:35:53;;;;;;;16.07;11.60;;;2.20;99.90;;;;;;4975667;28;20543;-83
2022/03/23 02:38:19;;;;;;;16.57;12.50;;;2.20;99.90;;;;;;4976380;28;20181;-82
2022/03/23 02:40:45;;;;;;;20.53;12.43;;;2.20;99.90;;;;;;4976590;28;20165;-82
2022/03/23 02:43:12;;;;;;;19.27;12.27;;;2.00;99.90;;;;;;4976098;28;20280;-82
2022/03/23 02:45:38;;;;;;;17.27;12.23;;;1.90;99.90;;;;;;4976551;28;20277;-83
2022/03/23 02:48:05;;;;;;;19.87;13.47;;;2.00;99.90;;;;;;4976337;28;20265;-82
2022/03/23 02:50:31;;;;;;;20.47;13.43;;;2.00;99.90;;;;;;4976081;28;20258;-84
2022/03/23 03:01:54;;;;;;;17.90;12.53;;;1.70;99.90;;;;;;4976546;28;20164;-83
2022/03/23 03:04:21;;;;;;;23.87;13.40;;;1.70;99.90;;;;;;4991031;28;20287;-83
2022/03/23 03:06:47;;;;;;;19.83;11.60;;;1.70;99.90;;;;;;4974810;28;20169;-82
2022/03/23 03:09:15;;;;;;;16.27;11.33;;;1.70;99.90;;;;;;4975818;28;20651;-83
2022/03/23 03:11:44;;;;;;;17.10;12.03;;;1.70;99.90;;;;;;4975769;28;20165;-83
2022/03/23 03:14:11;;;;;;;18.50;12.60;;;1.80;99.90;;;;;;4976215;28;20230;-83
2022/03/23 03:16:37;;;;;;;19.53;11.90;;;1.80;99.90;;;;;;4976078;28;20169;-83
2022/03/23 03:19:09;;;;;;;17.10;11.93;;;1.90;99.90;;;;;;4975898;28;20184;-84
2022/03/23 03:21:34;;;;;;;17.53;12.77;;;1.90;99.90;;;;;;4974601;28;20173;-84
2022/03/23 03:24:01;;;;;;;17.67;12.30;;;1.70;99.90;;;;;;4974716;28;20233;-85
2022/03/23 03:26:30;;;;;;;19.40;13.30;;;1.70;99.90;;;;;;4975518;28;20169;-84
2022/03/23 03:28:56;;;;;;;18.40;12.63;;;1.60;99.90;;;;;;4990847;28;20557;-84
2022/03/23 03:31:22;;;;;;;22.67;13.73;;;1.70;99.90;;;;;;4975772;28;20259;-83
2022/03/23 03:33:48;;;;;;;18.80;12.80;;;1.70;99.90;;;;;;4975751;28;20627;-85
2022/03/23 03:36:15;;;;;;;19.30;12.50;;;1.50;99.90;;;;;;4975923;28;20157;-84
2022/03/23 03:38:43;;;;;;;16.83;11.83;;;1.60;99.90;;;;;;4975177;28;20220;-84
2022/03/23 03:41:10;;;;;;;16.97;11.87;;;1.60;99.90;;;;;;4975540;28;20507;-82
2022/03/23 03:43:35;;;;;;;19.17;12.97;;;1.60;99.90;;;;;;4975364;28;20192;-84
2022/03/23 03:46:06;;;;;;;26.70;12.67;;;1.70;99.90;;;;;;4975879;28;20168;-84
2022/03/23 03:48:32;;;;;;;17.97;12.30;;;1.60;99.90;;;;;;4980263;28;20161;-84
2022/03/23 03:50:57;;;;;;;20.27;13.43;;;1.80;99.90;;;;;;4981850;28;20566;-84
2022/03/23 03:53:23;;;;;;;18.03;13.10;;;1.70;99.90;;;;;;4982041;28;20252;-85
2022/03/23 03:55:49;;;;;;;17.47;12.90;;;1.50;99.90;;;;;;4982322;28;20593;-83
2022/03/23 03:58:17;;;;;;;18.00;12.27;;;1.40;99.90;;;;;;4981732;28;20604;-84
2022/03/23 04:00:43;;;;;;;18.93;13.30;;;1.30;99.90;;;;;;4982184;28;20203;-85
2022/03/23 04:03:09;;;;;;;20.57;12.97;;;1.40;99.90;;;;;;4981899;28;20238;-82
2022/03/23 04:05:35;;;;;;;18.90;12.40;;;1.40;99.90;;;;;;4982123;28;20208;-83
2022/03/23 04:08:01;;;;;;;16.80;12.00;;;1.40;99.90;;;;;;4981928;28;20623;-84
2022/03/23 04:10:27;;;;;;;16.53;11.60;;;1.50;99.90;;;;;;4982062;28;20180;-85
2022/03/23 04:12:53;;;;;;;21.43;13.83;;;1.50;99.90;;;;;;4981630;28;20178;-84
2022/03/23 04:15:20;;;;;;;17.13;12.40;;;1.50;99.90;;;;;;4981924;28;20177;-85
2022/03/23 04:17:51;;;;;;;22.43;13.00;;;1.30;99.90;;;;;;4981741;28;20157;-86
2022/03/23 04:20:17;;;;;;;20.63;12.90;;;1.30;99.90;;;;;;4982101;28;20171;-85
2022/03/23 04:22:43;;;;;;;19.83;13.00;;;1.20;99.90;;;;;;4980752;28;20643;-85
2022/03/23 04:25:10;;;;;;;18.07;12.47;;;1.00;99.90;;;;;;4982008;28;20302;-85
2022/03/23 04:27:57;;;;;;;19.33;13.20;;;1.10;99.90;;;;;;4981770;28;20168;-85
2022/03/23 04:30:28;;;;;;;18.73;12.27;;;1.00;99.90;;;;;;4981757;28;20209;-86
2022/03/23 04:32:54;;;;;;;18.30;13.10;;;1.10;99.90;;;;;;4982140;28;20243;-85
2022/03/23 04:35:21;;;;;;;18.67;11.87;;;1.00;99.90;;;;;;4981871;28;20618;-85
2022/03/23 04:37:47;;;;;;;20.37;12.07;;;1.00;99.90;;;;;;4981865;28;20205;-84
2022/03/23 04:40:16;;;;;;;17.77;12.33;;;0.90;99.90;;;;;;4982158;28;20246;-85
2022/03/23 04:42:43;;;;;;;22.70;12.67;;;0.90;99.90;;;;;;4981169;28;20187;-85
2022/03/23 04:45:10;;;;;;;19.77;13.33;;;1.10;99.90;;;;;;4981531;28;20278;-86
2022/03/23 04:47:36;;;;;;;18.10;12.90;;;1.00;99.90;;;;;;4981663;28;20212;-85
2022/03/23 04:50:05;;;;;;;19.10;12.20;;;1.10;99.90;;;;;;4981874;28;20175;-85
2022/03/23 04:52:31;;;;;;;18.23;11.97;;;1.10;99.90;;;;;;4981537;28;20305;-85
2022/03/23 04:54:57;;;;;;;18.47;12.43;;;1.10;99.90;;;;;;4981767;28;20204;-85
2022/03/23 04:57:24;;;;;;;19.83;11.97;;;1.00;99.90;;;;;;4980144;28;20183;-84
2022/03/23 04:59:51;;;;;;;16.57;11.20;;;1.00;99.90;;;;;;4978689;28;20212;-85
2022/03/23 05:02:17;;;;;;;19.53;12.17;;;1.00;99.90;;;;;;4978655;28;20177;-85
2022/03/23 05:04:43;;;;;;;18.87;12.47;;;0.90;99.90;;;;;;4977497;28;20472;-85
2022/03/23 05:07:09;;;;;;;19.97;12.70;;;0.80;99.90;;;;;;4993558;28;20184;-85
2022/03/23 05:09:35;;;;;;;22.10;12.87;;;0.80;99.90;;;;;;4978545;28;20641;-86
2022/03/23 05:12:00;;;;;;;18.03;12.23;;;0.90;99.90;;;;;;4978086;28;20177;-85
2022/03/23 05:14:26;;;;;;;15.73;11.60;;;0.90;99.90;;;;;;4978411;28;20217;-85
2022/03/23 05:16:52;;;;;;;17.53;12.40;;;0.90;99.90;;;;;;4978546;28;20209;-85
2022/03/23 05:19:17;;;;;;;19.40;12.43;;;0.90;99.90;;;;;;4993221;28;20193;-85
2022/03/23 05:21:43;;;;;;;18.10;12.27;;;0.80;99.90;;;;;;4978258;28;20208;-84
2022/03/23 05:24:09;;;;;;;22.80;12.30;;;0.90;99.90;;;;;;4978079;28;20217;-85
2022/03/23 05:26:36;;;;;;;17.80;12.80;;;0.90;99.90;;;;;;4978324;28;20226;-85
2022/03/23 05:29:02;;;;;;;17.37;11.47;;;0.80;99.90;;;;;;4977752;28;20181;-85
2022/03/23 05:31:28;;;;;;;16.40;11.20;;;0.90;99.90;;;;;;4977989;28;20611;-84
2022/03/23 05:33:54;;;;;;;15.80;12.20;;;0.90;99.90;;;;;;4978000;28;20195;-85
2022/03/23 05:36:19;;;;;;;18.43;12.63;;;0.80;99.90;;;;;;4978214;28;20592;-84
2022/03/23 05:38:45;;;;;;;20.50;12.33;;;0.70;99.90;;;;;;4977816;28;20188;-85
2022/03/23 05:41:11;;;;;;;20.83;12.13;;;0.80;99.90;;;;;;4977795;28;20200;-86
2022/03/23 05:43:37;;;;;;;22.43;12.67;;;0.90;99.90;;;;;;4977501;28;20207;-85
2022/03/23 05:46:02;;;;;;;20.30;12.43;;;0.90;99.90;;;;;;4977780;28;20255;-85
2022/03/23 05:48:28;;;;;;;18.87;12.70;;;0.90;99.90;;;;;;4992725;28;20620;-84
2022/03/23 05:50:54;;;;;;;18.13;12.60;;;0.90;99.90;;;;;;4977557;28;20212;-85
2022/03/23 05:53:20;;;;;;;19.67;12.77;;;1.00;99.90;;;;;;4977469;28;20180;-85
2022/03/23 05:55:45;;;;;;;19.80;13.10;;;1.10;99.90;;;;;;4977558;28;20181;-85
2022/03/23 05:58:11;;;;;;;17.27;12.07;;;1.10;99.90;;;;;;4975975;28;20194;-85
2022/03/23 06:00:38;;;;;;;19.70;12.10;;;1.20;99.90;;;;;;4977541;28;20180;-85
2022/03/23 06:03:04;;;;;;;17.27;11.97;;;1.30;99.90;;;;;;4977484;28;20185;-85
2022/03/23 06:05:29;;;;;;;16.40;11.80;;;1.30;99.90;;;;;;4977480;28;20256;-85
2022/03/23 06:07:55;;;;;;;20.67;12.23;;;1.30;99.90;;;;;;4977216;28;20204;-85
2022/03/23 06:10:20;;;;;;;19.00;12.60;;;1.40;99.90;;;;;;4977296;28;20187;-86
2022/03/23 06:12:46;;;;;;;18.10;12.57;;;1.30;99.90;;;;;;4977047;28;20180;-85
2022/03/23 06:15:12;;;;;;;19.83;13.20;;;1.40;99.90;;;;;;4976226;28;20173;-85
2022/03/23 06:17:39;;;;;;;17.33;11.77;;;1.40;99.90;;;;;;4976203;28;20497;-86
2022/03/23 06:20:06;;;;;;;18.80;12.73;;;1.50;99.90;;;;;;4977320;28;20218;-86
2022/03/23 06:22:32;;;;;;;19.20;12.27;;;1.60;99.90;;;;;;4977312;28;20173;-84
2022/03/23 06:24:57;;;;;;;23.17;13.30;;;1.70;99.90;;;;;;4977181;28;20288;-86
2022/03/23 06:27:24;;;;;;;16.83;12.33;;;1.70;99.90;;;;;;4975837;28;20312;-86
2022/03/23 06:29:50;;;;;;;18.50;12.87;;;1.70;99.90;;;;;;4976988;28;20184;-86
2022/03/23 06:32:17;;;;;;;18.27;12.93;;;1.80;99.90;;;;;;4977149;28;20503;-86
2022/03/23 06:34:43;;;;;;;20.03;12.93;;;1.90;99.90;;;;;;4977169;28;20172;-87
2022/03/23 06:37:08;;;;;;;20.67;13.00;;;1.90;99.90;;;;;;4976898;28;20170;-85
2022/03/23 06:39:34;;;;;;;18.27;12.37;;;2.00;99.90;;;;;;4976929;28;20184;-85
2022/03/23 06:42:00;;;;;;;18.23;12.77;;;2.10;99.90;;;;;;4976569;28;20200;-85
2022/03/23 06:44:26;;;;;;;20.03;13.53;;;2.20;99.90;;;;;;4976042;28;20650;-86
2022/03/23 06:46:52;;;;;;;16.50;12.87;;;2.30;99.90;;;;;;4977182;28;20166;-85
2022/03/23 06:49:18;;;;;;;17.50;12.50;;;2.40;99.90;;;;;;4976707;28;20193;-84
2022/03/23 06:51:44;;;;;;;18.33;13.33;;;2.50;99.90;;;;;;4976527;28;20228;-85
2022/03/23 06:54:10;;;;;;;17.80;12.73;;;2.60;99.90;;;;;;4976591;28;20178;-86
2022/03/23 06:56:36;;;;;;;19.07;12.93;;;2.70;99.90;;;;;;4976496;28;20612;-86
2022/03/23 06:59:03;;;;;;;21.30;12.80;;;2.80;99.90;;;;;;4976146;28;20179;-85
2022/03/23 07:01:29;;;;;;;16.97;13.13;;;2.90;99.90;;;;;;4976517;28;20196;-85
2022/03/23 07:03:55;;;;;;;17.77;13.50;;;2.90;99.90;;;;;;4976212;28;20590;-85
2022/03/23 07:06:21;;;;;;;23.43;14.23;;;3.00;99.90;;;;;;4975194;28;20180;-84
2022/03/23 07:11:31;;;;;;;21.93;14.60;;;3.20;99.90;;;;;;4976075;28;20175;-84
2022/03/23 07:13:57;;;;;;;21.33;14.70;;;3.20;99.90;;;;;;4975997;28;20183;-84
2022/03/23 07:16:23;;;;;;;20.90;14.20;;;3.30;99.90;;;;;;4976032;28;20167;-83
2022/03/23 07:18:49;;;;;;;24.23;14.83;;;3.30;99.90;;;;;;4975978;28;20261;-84
2022/03/23 07:21:15;;;;;;;21.13;14.83;;;3.40;99.90;;;;;;4975945;28;20177;-84
2022/03/23 07:23:41;;;;;;;25.80;15.03;;;3.40;99.90;;;;;;4975017;28;20537;-83
2022/03/23 07:26:07;;;;;;;21.27;15.03;;;3.50;99.90;;;;;;4975856;28;20189;-84
2022/03/23 07:28:33;;;;;;;24.33;15.67;;;3.60;99.90;;;;;;4975557;28;20173;-84
2022/03/23 07:30:59;;;;;;;27.43;16.63;;;3.70;99.90;;;;;;4975764;28;20180;-84
2022/03/23 07:33:25;;;;;;;22.03;15.67;;;3.80;99.90;;;;;;4975653;28;20543;-85
2022/03/23 07:35:51;;;;;;;22.43;16.23;;;3.80;99.90;;;;;;4975898;28;20182;-84
2022/03/23 07:38:17;;;;;;;23.00;16.57;;;4.00;99.90;;;;;;4990412;28;20195;-83
2022/03/23 07:40:43;;;;;;;21.70;16.07;;;4.10;99.90;;;;;;4975638;28;20184;-84
2022/03/23 07:43:09;;;;;;;24.33;16.87;;;4.20;99.90;;;;;;4975186;28;20175;-84
2022/03/23 07:45:35;;;;;;;26.03;16.53;;;4.30;99.90;;;;;;4975913;28;20188;-84
2022/03/23 07:48:00;;;;;;;26.73;17.47;;;4.40;99.90;;;;;;4974299;28;20231;-83
2022/03/23 07:50:27;;;;;;;26.83;16.50;;;4.50;99.90;;;;;;4975650;28;20659;-84
2022/03/23 07:52:53;;;;;;;25.33;16.87;;;4.60;99.90;;;;;;4990360;28;20664;-85
2022/03/23 07:55:19;;;;;;;26.03;17.37;;;4.70;99.90;;;;;;4975583;28;20231;-84
2022/03/23 07:57:45;;;;;;;26.30;16.47;;;4.80;99.90;;;;;;4975320;28;20165;-85
2022/03/23 08:00:11;;;;;;;22.73;16.33;;;4.90;99.90;;;;;;4975617;28;20178;-84
2022/03/23 08:02:37;;;;;;;22.80;15.53;;;5.10;99.90;;;;;;4975410;28;20563;-84
2022/03/23 08:05:05;;;;;;;25.30;16.73;;;5.20;99.90;;;;;;4975933;28;20211;-84
2022/03/23 08:07:30;;;;;;;23.80;17.20;;;5.40;99.90;;;;;;4992757;28;20490;-84
2022/03/23 08:09:56;;;;;;;26.77;15.83;;;5.50;99.90;;;;;;4974742;28;20184;-84
2022/03/23 08:12:22;;;;;;;22.07;16.40;;;5.60;99.90;;;;;;4973838;28;20181;-84
2022/03/23 08:14:48;;;;;;;23.60;16.87;;;5.80;99.90;;;;;;4975340;28;20216;-84
2022/03/23 08:17:14;;;;;;;22.90;15.53;;;5.90;99.90;;;;;;4974326;28;20177;-84
2022/03/23 08:19:39;;;;;;;22.83;15.90;;;6.00;99.90;;;;;;4975257;28;20177;-83
2022/03/23 08:22:06;;;;;;;22.60;15.53;;;6.20;99.90;;;;;;4975178;28;20595;-83
2022/03/23 08:24:31;;;;;;;23.03;16.17;;;6.30;99.90;;;;;;4973861;28;20215;-84
2022/03/23 08:26:58;;;;;;;22.57;16.10;;;6.40;99.90;;;;;;4975237;28;20490;-84
2022/03/23 08:29:24;;;;;;;22.93;15.90;;;6.50;99.90;;;;;;4974720;28;20169;-84
2022/03/23 08:31:50;;;;;;;24.80;16.40;;;6.70;99.90;;;;;;4975038;28;20184;-83
2022/03/23 08:34:15;;;;;;;27.03;16.57;;;6.80;99.90;;;;;;4975489;28;20173;-83
2022/03/23 08:36:41;;;;;;;25.47;16.33;;;6.90;99.90;;;;;;4978623;28;20180;-84
2022/03/23 08:39:07;;;;;;;25.60;16.60;;;7.00;99.90;;;;;;4977188;28;20247;-83
2022/03/23 08:41:32;;;;;;;21.70;16.03;;;7.10;99.90;;;;;;4993637;28;20204;-83
2022/03/23 08:43:58;;;;;;;26.83;16.03;;;7.20;99.90;;;;;;4978192;28;20220;-83
2022/03/23 08:46:25;;;;;;;25.10;16.97;;;7.30;99.90;;;;;;4993551;28;20677;-83
2022/03/23 08:48:52;;;;;;;25.27;16.30;;;7.40;99.90;;;;;;4978236;28;20165;-84
2022/03/23 08:51:19;;;;;;;22.17;15.67;;;7.50;99.90;;;;;;4993359;28;20232;-83
2022/03/23 08:53:45;;;;;;;23.33;15.93;;;7.70;99.90;;;;;;4993461;28;20188;-83
2022/03/23 08:56:11;;;;;;;22.73;16.50;;;7.90;99.90;;;;;;4978318;28;20615;-83
2022/03/23 08:58:38;;;;;;;21.47;16.10;;;8.00;99.40;;;;;;4977860;28;20672;-83
2022/03/23 09:01:05;;;;;;;19.60;15.33;;;8.10;99.90;;;;;;4978110;28;20184;-84
2022/03/23 09:03:30;;;;;;;23.50;16.77;;;8.10;99.50;;;;;;4992987;28;20717;-83
2022/03/23 09:05:57;;;;;;;23.70;16.43;;;8.20;99.90;;;;;;4993283;28;20184;-84
2022/03/23 09:08:23;;;;;;;26.23;16.77;;;8.40;99.80;;;;;;4978008;28;20221;-83
2022/03/23 09:10:49;;;;;;;26.37;17.53;;;8.50;99.80;;;;;;4976864;28;20236;-84
2022/03/23 09:13:14;;;;;;;24.27;17.37;;;8.70;99.10;;;;;;4976277;28;20627;-83
2022/03/23 09:15:40;;;;;;;27.57;17.23;;;8.80;98.20;;;;;;4976768;28;20181;-83
2022/03/23 09:18:07;;;;;;;23.33;16.60;;;9.00;96.80;;;;;;4977962;28;20592;-84
2022/03/23 09:20:33;;;;;;;26.50;16.30;;;9.10;96.50;;;;;;4978216;28;20177;-83
2022/03/23 09:23:00;;;;;;;26.50;16.63;;;9.20;96.70;;;;;;4977724;28;20570;-83
2022/03/23 09:25:25;;;;;;;22.87;15.63;;;9.20;95.80;;;;;;4978043;28;20607;-83
2022/03/23 09:27:52;;;;;;;22.70;16.30;;;9.30;96.30;;;;;;4977411;28;20165;-83
2022/03/23 09:30:19;;;;;;;25.23;17.00;;;9.40;95.00;;;;;;4976426;28;20180;-83
2022/03/23 09:32:46;;;;;;;24.33;15.30;;;9.50;94.50;;;;;;4977486;28;20603;-83
2022/03/23 09:35:14;;;;;;;22.63;16.50;;;9.70;95.10;;;;;;4977719;28;20186;-83
2022/03/23 09:37:49;;;;;;;32.93;16.67;;;10.00;94.70;;;;;;4977389;28;20231;-83
2022/03/23 09:40:28;;;;;;;27.57;15.17;;;10.20;93.10;;;;;;4977705;28;20199;-83
2022/03/23 09:42:57;;;;;;;23.37;15.77;;;10.40;92.00;;;;;;4977295;28;20157;-82
2022/03/23 09:48:09;;;;;;;27.00;17.37;;;10.70;91.30;;;;;;4977806;28;20259;-83
2022/03/23 09:50:36;;;;;;;24.47;17.37;;;10.90;90.00;;;;;;4977551;28;20176;-82
2022/03/23 09:53:03;;;;;;;25.50;16.53;;;11.00;87.00;;;;;;4977166;28;20227;-82
2022/03/23 09:55:30;;;;;;;25.60;16.60;;;11.20;88.30;;;;;;4977246;28;20181;-83
2022/03/23 09:57:57;;;;;;;25.53;17.60;;;11.10;89.40;;;;;;4977086;28;20231;-82
2022/03/23 10:00:24;;;;;;;23.48;16.48;;;11.20;89.30;;;;;;4977283;28;20180;-82
2022/03/23 10:03:11;;;;;;;23.65;17.20;;;11.20;87.60;;;;;;4976009;28;20184;-83
2022/03/23 10:06:14;;;;;;;24.95;16.15;;;11.40;89.20;;;;;;4992160;28;20304;-83
2022/03/23 10:09:01;;;;;;;24.00;17.37;;;11.70;86.90;;;;;;4977061;28;20310;-83
2022/03/23 10:12:04;;;;;;;25.75;17.20;;;11.90;82.70;;;;;;4977164;28;20168;-83
2022/03/23 10:14:45;;;;;;;23.80;17.23;;;12.20;82.50;;;;;;4976785;28;20180;-83
2022/03/23 10:17:55;;;;;;;24.52;17.98;;;12.20;81.50;;;;;;4976993;28;20157;-83
2022/03/23 10:20:21;;;;;;;25.83;17.83;;;12.20;83.10;;;;;;4976951;28;20173;-82
2022/03/23 10:22:54;;;;;;;23.83;16.45;;;12.30;82.30;;;;;;4976847;28;20180;-84
2022/03/23 10:25:26;;;;;;;26.30;16.88;;;12.40;81.80;;;;;;4976875;28;20291;-83
2022/03/23 10:27:55;;;;;;;30.38;18.02;;;12.60;80.60;;;;;;4991409;28;20180;-83
2022/03/23 10:30:33;;;;;;;23.98;17.25;;;12.70;77.70;;;;;;4975473;28;20224;-82
2022/03/23 10:32:58;;;;;;;25.10;16.83;;;12.70;75.70;;;;;;4991940;28;20592;-83
2022/03/23 10:35:35;;;;;;;26.38;19.20;;;12.90;77.30;;;;;;4976612;28;20181;-83
2022/03/23 10:38:15;;;;;;;23.83;16.63;;;13.00;74.60;;;;;;4991382;28;20204;-83
2022/03/23 10:40:45;;;;;;;24.52;17.35;;;13.10;74.60;;;;;;4976872;28;20168;-83
2022/03/23 10:43:14;;;;;;;27.80;16.98;;;13.10;72.50;;;;;;4974539;28;20180;-83
2022/03/23 10:45:40;;;;;;;57.85;17.00;;;13.20;73.50;;;;;;4975201;28;20525;-83
2022/03/23 10:48:11;;;;;;;23.85;16.10;;;13.50;74.00;;;;;;4976446;28;20276;-82
2022/03/23 10:50:37;;;;;;;24.02;16.38;;;13.60;68.50;;;;;;4976547;28;20248;-82
2022/03/23 10:53:06;;;;;;;21.17;15.95;;;13.70;70.80;;;;;;4974869;28;20569;-83
2022/03/23 10:55:36;;;;;;;23.08;15.38;;;13.90;71.30;;;;;;4975077;28;20182;-82
2022/03/23 10:58:02;;;;;;;24.58;16.60;;;13.90;64.90;;;;;;4973771;28;20196;-82
2022/03/23 11:00:34;;;;;;;23.83;15.93;;;13.90;66.50;;;;;;4976284;28;20169;-83
2022/03/23 11:03:01;;;;;;;21.45;15.07;;;13.90;68.30;;;;;;4976261;28;20173;-83
2022/03/23 11:05:44;;;;;;;22.92;15.85;;;14.00;66.80;;;;;;4974915;28;20655;-83
2022/03/23 11:08:13;;;;;;;24.30;16.98;;;14.30;66.70;;;;;;4974599;28;20188;-83
2022/03/23 11:16:16;;;;;;;23.38;16.92;;;14.70;65.70;;;;;;4976366;28;20179;-83
2022/03/23 11:18:44;;;;;;;25.17;17.13;;;14.80;64.10;;;;;;4975868;28;20200;-82
2022/03/23 11:21:10;;;;;;;22.77;16.20;;;14.90;64.40;;;;;;4990892;28;20536;-82
2022/03/23 11:23:37;;;;;;;23.15;16.25;;;15.00;65.10;;;;;;4990837;28;20208;-82
2022/03/23 11:26:08;;;;;;;20.60;15.93;;;15.10;62.00;;;;;;4975941;28;20173;-82
2022/03/23 11:28:42;;;;;;;22.73;16.25;;;15.10;62.20;;;;;;4975513;28;20179;-83
2022/03/23 11:31:13;;;;;;;22.30;15.95;;;15.20;62.20;;;;;;4975743;28;20165;-82
2022/03/23 11:33:39;;;;;;;21.67;16.48;;;15.30;62.60;;;;;;4990471;28;20594;-82
2022/03/23 11:36:09;;;;;;;24.92;17.38;;;15.50;60.90;;;;;;4990779;28;20223;-82
2022/03/23 11:38:37;;;;;;;24.25;16.55;;;15.60;60.60;;;;;;4990564;28;20572;-82
2022/03/23 11:41:03;;;;;;;21.70;16.58;;;15.50;60.90;;;;;;4975750;28;20176;-82
2022/03/23 11:43:30;;;;;;;22.67;16.70;;;15.60;61.10;;;;;;4990110;28;20203;-82
2022/03/23 11:45:57;;;;;;;23.83;17.77;;;15.70;62.40;;;;;;4975447;28;20204;-83
2022/03/23 11:49:05;;;;;;;22.98;17.17;;;15.90;62.40;;;;;;4990440;28;20520;-83
2022/03/23 11:52:13;;;;;;;23.75;17.23;;;16.10;62.10;;;;;;4990271;28;20231;-82
2022/03/23 11:58:05;;;;;;;22.15;16.38;;;16.20;59.90;;;;;;4975499;28;20176;-82
2022/03/23 12:00:54;;;;;;;21.02;16.38;;;16.20;57.90;;;;;;4958688;28;20216;-83
2022/03/23 12:03:41;;;;;;;26.02;17.30;;;16.20;57.90;;;;;;4975333;28;20179;-83
2022/03/23 12:06:13;;;;;;;25.27;17.25;;;16.30;58.70;;;;;;4975449;28;20187;-82
2022/03/23 12:08:59;;;;;;;22.83;16.42;;;16.20;59.00;;;;;;4991465;28;20523;-82
2022/03/23 12:11:44;;;;;;;20.02;14.80;;;16.30;58.00;;;;;;4979403;28;20499;-82
2022/03/23 12:14:18;;;;;;;20.83;15.60;;;16.40;55.70;;;;;;4979164;28;20176;-82
2022/03/23 12:16:50;;;;;;;22.70;15.18;;;16.50;55.30;;;;;;4994155;28;20180;-82
2022/03/23 12:19:31;;;;;;;20.52;15.57;;;16.80;55.30;;;;;;4979134;28;20157;-82
2022/03/23 12:22:14;;;;;;;20.48;15.98;;;16.80;54.40;;;;;;4979064;28;20259;-82
2022/03/23 12:25:12;;;;;;;21.10;15.77;;;17.10;54.70;;;;;;4994070;28;20296;-82
2022/03/23 12:27:56;;;;;;;25.92;15.18;;;17.20;53.80;;;;;;4978757;28;20173;-82
2022/03/23 12:30:24;;;;;;;18.20;13.95;;;17.40;54.10;;;;;;4993841;28;20568;-82
2022/03/23 12:32:50;;;;;;;18.75;13.68;;;17.40;53.60;;;;;;4979029;28;20247;-82
2022/03/23 12:35:27;;;;;;;19.13;14.32;;;17.40;52.80;;;;;;4978842;28;20616;-83
2022/03/23 12:37:53;;;;;;;19.67;13.50;;;17.40;52.00;;;;;;4993662;28;20509;-82
2022/03/23 12:40:19;;;;;;;20.35;13.32;;;17.50;50.80;;;;;;4993815;28;20192;-82
2022/03/23 12:42:46;;;;;;;17.55;13.50;;;17.30;50.30;;;;;;4993563;28;20604;-82
2022/03/23 12:45:22;;;;;;;19.38;12.98;;;17.30;50.20;;;;;;4993366;28;20212;-82
2022/03/23 12:47:56;;;;;;;15.57;12.88;;;17.10;48.00;;;;;;4993633;28;20172;-83
2022/03/23 12:59:17;;;;;;;19.48;13.98;;;17.60;47.90;;;;;;4978404;28;20247;-82
2022/03/23 13:01:43;;;;;;;20.40;13.52;;;17.70;49.60;;;;;;4993463;28;20174;-82
2022/03/23 13:04:28;;;;;;;19.13;14.80;;;17.90;50.10;;;;;;4993299;28;20660;-82
2022/03/23 13:06:55;;;;;;;17.55;13.50;;;18.00;48.80;;;;;;4978191;28;20517;-82
2022/03/23 13:09:25;;;;;;;18.58;14.55;;;17.80;48.00;;;;;;4978033;28;20709;-82
2022/03/23 13:11:59;;;;;;;18.73;13.45;;;17.80;48.70;;;;;;4976894;28;20231;-82
2022/03/23 13:14:26;;;;;;;16.92;12.88;;;17.90;48.00;;;;;;4976630;28;20651;-82